sensor_id;sensor_type;location;lat;lon;timestamp;temperature;humidity
68385;DHT22;55336;43.062;25.626;2024-02-28T00:00:34;2.50;99.90
68385;DHT22;55336;43.062;25.626;2024-02-28T00:03:00;2.90;99.90
68385;DHT22;55336;43.062;25.626;2024-02-28T00:05:26;2.40;99.90
68385;DHT22;55336;43.062;25.626;2024-02-28T00:07:52;2.40;99.90
68385;DHT22;55336;43.062;25.626;2024-02-28T00:10:18;2.40;99.90
68385;DHT22;55336;43.062;25.626;2024-02-28T00:12:44;2.40;99.90
68385;DHT22;55336;43.062;25.626;2024-02-28T00:15:09;2.40;99.90
68385;DHT22;55336;43.062;25.626;2024-02-28T00:17:39;2.40;99.90
68385;DHT22;55336;43.062;25.626;2024-02-28T00:20:08;2.40;99.90
68385;DHT22;55336;43.062;25.626;2024-02-28T00:22:37;2.30;99.90
68385;DHT22;55336;43.062;25.626;2024-02-28T00:25:02;2.30;99.90
68385;DHT22;55336;43.062;25.626;2024-02-28T00:27:28;2.30;99.90
68385;DHT22;55336;43.062;25.626;2024-02-28T00:29:54;2.30;99.90
68385;DHT22;55336;43.062;25.626;2024-02-28T00:32:21;2.20;99.90
68385;DHT22;55336;43.062;25.626;2024-02-28T00:34:46;2.20;99.90
68385;DHT22;55336;43.062;25.626;2024-02-28T00:37:12;2.20;99.90
68385;DHT22;55336;43.062;25.626;2024-02-28T00:39:37;2.20;99.90
68385;DHT22;55336;43.062;25.626;2024-02-28T00:42:03;2.20;99.90
68385;DHT22;55336;43.062;25.626;2024-02-28T00:44:29;2.20;99.90
68385;DHT22;55336;43.062;25.626;2024-02-28T00:46:55;2.20;99.90
68385;DHT22;55336;43.062;25.626;2024-02-28T00:49:20;2.20;99.90
68385;DHT22;55336;43.062;25.626;2024-02-28T00:51:46;2.20;99.90
68385;DHT22;55336;43.062;25.626;2024-02-28T00:54:12;2.30;99.90
68385;DHT22;55336;43.062;25.626;2024-02-28T00:56:38;2.20;99.90
68385;DHT22;55336;43.062;25.626;2024-02-28T00:59:04;2.20;99.90
68385;DHT22;55336;43.062;25.626;2024-02-28T01:01:31;2.10;99.90
68385;DHT22;55336;43.062;25.626;2024-02-28T01:03:57;2.10;99.90
68385;DHT22;55336;43.062;25.626;2024-02-28T01:06:23;2.10;99.90
68385;DHT22;55336;43.062;25.626;2024-02-28T01:08:49;2.10;99.90
68385;DHT22;55336;43.062;25.626;2024-02-28T01:11:15;2.10;99.90
68385;DHT22;55336;43.062;25.626;2024-02-28T01:13:40;1.90;99.90
68385;DHT22;55336;43.062;25.626;2024-02-28T01:16:06;2.00;99.90
68385;DHT22;55336;43.062;25.626;2024-02-28T01:18:32;1.90;99.90
68385;DHT22;55336;43.062;25.626;2024-02-28T01:20:58;1.90;99.90
68385;DHT22;55336;43.062;25.626;2024-02-28T01:23:24;1.80;99.90
68385;DHT22;55336;43.062;25.626;2024-02-28T01:25:50;1.80;99.90
68385;DHT22;55336;43.062;25.626;2024-02-28T01:28:15;1.80;99.90
68385;DHT22;55336;43.062;25.626;2024-02-28T01:30:41;1.70;99.90
68385;DHT22;55336;43.062;25.626;2024-02-28T01:33:07;1.70;99.90
68385;DHT22;55336;43.062;25.626;2024-02-28T01:35:32;1.70;99.90
68385;DHT22;55336;43.062;25.626;2024-02-28T01:37:58;1.70;99.90
68385;DHT22;55336;43.062;25.626;2024-02-28T01:40:24;1.70;99.90
68385;DHT22;55336;43.062;25.626;2024-02-28T01:42:50;1.60;99.90
68385;DHT22;55336;43.062;25.626;2024-02-28T01:45:16;1.60;99.90
68385;DHT22;55336;43.062;25.626;2024-02-28T01:47:41;1.60;99.90
68385;DHT22;55336;43.062;25.626;2024-02-28T01:50:08;1.70;99.90
68385;DHT22;55336;43.062;25.626;2024-02-28T01:52:35;1.70;99.90
68385;DHT22;55336;43.062;25.626;2024-02-28T01:55:03;1.70;99.90
68385;DHT22;55336;43.062;25.626;2024-02-28T01:57:31;1.60;99.90
68385;DHT22;55336;43.062;25.626;2024-02-28T01:59:57;1.60;99.90
68385;DHT22;55336;43.062;25.626;2024-02-28T02:02:23;1.60;99.90
68385;DHT22;55336;43.062;25.626;2024-02-28T02:04:49;1.50;99.90
68385;DHT22;55336;43.062;25.626;2024-02-28T02:07:18;1.50;99.90
68385;DHT22;55336;43.062;25.626;2024-02-28T02:09:44;1.40;99.90
68385;DHT22;55336;43.062;25.626;2024-02-28T02:12:10;1.40;99.90
68385;DHT22;55336;43.062;25.626;2024-02-28T02:14:36;1.40;99.90
68385;DHT22;55336;43.062;25.626;2024-02-28T02:17:02;1.40;99.90
68385;DHT22;55336;43.062;25.626;2024-02-28T02:19:27;1.40;99.90
68385;DHT22;55336;43.062;25.626;2024-02-28T02:21:53;1.30;99.90
68385;DHT22;55336;43.062;25.626;2024-02-28T02:24:22;1.30;99.90
68385;DHT22;55336;43.062;25.626;2024-02-28T02:26:48;1.30;99.90
68385;DHT22;55336;43.062;25.626;2024-02-28T02:29:17;1.20;99.90
68385;DHT22;55336;43.062;25.626;2024-02-28T02:31:43;1.30;99.90
68385;DHT22;55336;43.062;25.626;2024-02-28T02:34:08;1.20;99.90
68385;DHT22;55336;43.062;25.626;2024-02-28T02:36:34;1.20;99.90
68385;DHT22;55336;43.062;25.626;2024-02-28T02:39:00;1.10;99.90
68385;DHT22;55336;43.062;25.626;2024-02-28T02:41:26;1.30;99.90
68385;DHT22;55336;43.062;25.626;2024-02-28T02:43:51;1.30;99.90
68385;DHT22;55336;43.062;25.626;2024-02-28T02:46:17;1.30;99.90
68385;DHT22;55336;43.062;25.626;2024-02-28T02:48:43;1.30;99.90
68385;DHT22;55336;43.062;25.626;2024-02-28T02:51:09;1.30;99.90
68385;DHT22;55336;43.062;25.626;2024-02-28T02:53:34;1.20;99.90
68385;DHT22;55336;43.062;25.626;2024-02-28T02:56:03;1.20;99.90
68385;DHT22;55336;43.062;25.626;2024-02-28T02:58:28;1.20;99.90
68385;DHT22;55336;43.062;25.626;2024-02-28T03:00:54;1.10;99.90
68385;DHT22;55336;43.062;25.626;2024-02-28T03:03:20;1.30;99.90
68385;DHT22;55336;43.062;25.626;2024-02-28T03:05:46;1.10;99.90
68385;DHT22;55336;43.062;25.626;2024-02-28T03:08:11;1.10;99.90
68385;DHT22;55336;43.062;25.626;2024-02-28T03:10:37;1.10;99.90
68385;DHT22;55336;43.062;25.626;2024-02-28T03:13:03;1.10;99.90
68385;DHT22;55336;43.062;25.626;2024-02-28T03:15:31;1.10;99.90
68385;DHT22;55336;43.062;25.626;2024-02-28T03:17:56;1.10;99.90
68385;DHT22;55336;43.062;25.626;2024-02-28T03:20:22;1.00;99.90
68385;DHT22;55336;43.062;25.626;2024-02-28T03:22:47;1.00;99.90
68385;DHT22;55336;43.062;25.626;2024-02-28T03:25:13;1.00;99.90
68385;DHT22;55336;43.062;25.626;2024-02-28T03:27:39;1.00;99.90
68385;DHT22;55336;43.062;25.626;2024-02-28T03:30:05;1.00;99.90
68385;DHT22;55336;43.062;25.626;2024-02-28T03:32:31;1.00;99.90
68385;DHT22;55336;43.062;25.626;2024-02-28T03:34:56;0.90;99.90
68385;DHT22;55336;43.062;25.626;2024-02-28T03:37:22;0.90;99.90
68385;DHT22;55336;43.062;25.626;2024-02-28T03:39:48;0.90;99.90
68385;DHT22;55336;43.062;25.626;2024-02-28T03:42:13;0.90;99.90
68385;DHT22;55336;43.062;25.626;2024-02-28T03:44:39;1.00;99.90
68385;DHT22;55336;43.062;25.626;2024-02-28T03:47:05;1.00;99.90
68385;DHT22;55336;43.062;25.626;2024-02-28T03:49:31;1.10;99.90
68385;DHT22;55336;43.062;25.626;2024-02-28T03:51:57;1.00;99.90
68385;DHT22;55336;43.062;25.626;2024-02-28T03:54:22;1.00;99.90
68385;DHT22;55336;43.062;25.626;2024-02-28T03:56:48;1.00;99.90
68385;DHT22;55336;43.062;25.626;2024-02-28T03:59:14;1.00;99.90
68385;DHT22;55336;43.062;25.626;2024-02-28T04:01:39;1.00;99.90
68385;DHT22;55336;43.062;25.626;2024-02-28T04:04:05;1.10;99.90
68385;DHT22;55336;43.062;25.626;2024-02-28T04:06:34;0.90;99.90
68385;DHT22;55336;43.062;25.626;2024-02-28T04:09:00;0.90;99.90
68385;DHT22;55336;43.062;25.626;2024-02-28T04:11:25;0.80;99.90
68385;DHT22;55336;43.062;25.626;2024-02-28T04:13:52;0.80;99.90
68385;DHT22;55336;43.062;25.626;2024-02-28T04:16:17;0.80;99.90
68385;DHT22;55336;43.062;25.626;2024-02-28T04:18:44;0.80;99.90
68385;DHT22;55336;43.062;25.626;2024-02-28T04:21:09;0.80;99.90
68385;DHT22;55336;43.062;25.626;2024-02-28T04:23:35;0.80;99.90
68385;DHT22;55336;43.062;25.626;2024-02-28T04:26:01;0.80;99.90
68385;DHT22;55336;43.062;25.626;2024-02-28T04:28:27;0.80;99.90
68385;DHT22;55336;43.062;25.626;2024-02-28T04:30:53;0.80;99.90
68385;DHT22;55336;43.062;25.626;2024-02-28T04:33:20;0.80;99.90
68385;DHT22;55336;43.062;25.626;2024-02-28T04:35:45;0.80;99.90
68385;DHT22;55336;43.062;25.626;2024-02-28T04:38:11;0.70;99.90
68385;DHT22;55336;43.062;25.626;2024-02-28T04:40:37;0.70;99.90
68385;DHT22;55336;43.062;25.626;2024-02-28T04:43:02;0.60;99.90
68385;DHT22;55336;43.062;25.626;2024-02-28T04:45:29;0.60;99.90
68385;DHT22;55336;43.062;25.626;2024-02-28T04:47:55;0.60;99.90
68385;DHT22;55336;43.062;25.626;2024-02-28T04:50:23;0.60;99.90
68385;DHT22;55336;43.062;25.626;2024-02-28T04:52:49;0.70;99.90
68385;DHT22;55336;43.062;25.626;2024-02-28T04:55:14;0.60;99.90
68385;DHT22;55336;43.062;25.626;2024-02-28T04:57:40;0.60;99.90
68385;DHT22;55336;43.062;25.626;2024-02-28T05:00:06;0.60;99.90
68385;DHT22;55336;43.062;25.626;2024-02-28T05:02:33;0.90;99.90
68385;DHT22;55336;43.062;25.626;2024-02-28T05:04:59;0.60;99.90
68385;DHT22;55336;43.062;25.626;2024-02-28T05:07:25;0.60;99.90
68385;DHT22;55336;43.062;25.626;2024-02-28T05:09:51;0.60;99.90
68385;DHT22;55336;43.062;25.626;2024-02-28T05:12:17;0.70;99.90
68385;DHT22;55336;43.062;25.626;2024-02-28T05:14:42;0.70;99.90
68385;DHT22;55336;43.062;25.626;2024-02-28T05:17:08;0.70;99.90
68385;DHT22;55336;43.062;25.626;2024-02-28T05:19:34;0.70;99.90
68385;DHT22;55336;43.062;25.626;2024-02-28T05:22:00;0.80;99.90
68385;DHT22;55336;43.062;25.626;2024-02-28T05:24:26;0.80;99.90
68385;DHT22;55336;43.062;25.626;2024-02-28T05:26:52;0.90;99.90
68385;DHT22;55336;43.062;25.626;2024-02-28T05:29:18;0.90;99.90
68385;DHT22;55336;43.062;25.626;2024-02-28T05:31:43;1.00;99.90
68385;DHT22;55336;43.062;25.626;2024-02-28T05:34:09;1.10;99.90
68385;DHT22;55336;43.062;25.626;2024-02-28T05:36:35;1.10;99.90
68385;DHT22;55336;43.062;25.626;2024-02-28T05:39:02;1.30;99.90
68385;DHT22;55336;43.062;25.626;2024-02-28T05:41:30;1.30;99.90
68385;DHT22;55336;43.062;25.626;2024-02-28T05:43:56;1.50;99.90
68385;DHT22;55336;43.062;25.626;2024-02-28T05:46:22;1.60;99.90
68385;DHT22;55336;43.062;25.626;2024-02-28T05:48:48;1.70;99.90
68385;DHT22;55336;43.062;25.626;2024-02-28T05:51:14;1.80;99.90
68385;DHT22;55336;43.062;25.626;2024-02-28T05:53:40;2.00;99.90
68385;DHT22;55336;43.062;25.626;2024-02-28T05:56:06;2.10;99.90
68385;DHT22;55336;43.062;25.626;2024-02-28T05:58:42;2.20;99.90
68385;DHT22;55336;43.062;25.626;2024-02-28T06:01:08;2.40;99.90
68385;DHT22;55336;43.062;25.626;2024-02-28T06:03:34;2.60;99.90
68385;DHT22;55336;43.062;25.626;2024-02-28T06:06:00;2.80;99.90
68385;DHT22;55336;43.062;25.626;2024-02-28T06:08:26;2.80;99.90
68385;DHT22;55336;43.062;25.626;2024-02-28T06:10:51;3.10;99.90
68385;DHT22;55336;43.062;25.626;2024-02-28T06:13:18;3.40;99.90
68385;DHT22;55336;43.062;25.626;2024-02-28T06:15:43;3.70;99.90
68385;DHT22;55336;43.062;25.626;2024-02-28T06:18:09;3.90;99.90
68385;DHT22;55336;43.062;25.626;2024-02-28T06:20:35;4.20;99.90
68385;DHT22;55336;43.062;25.626;2024-02-28T06:23:01;4.40;99.90
68385;DHT22;55336;43.062;25.626;2024-02-28T06:25:27;4.70;99.90
68385;DHT22;55336;43.062;25.626;2024-02-28T06:27:53;5.10;99.90
68385;DHT22;55336;43.062;25.626;2024-02-28T06:30:19;5.30;99.90
68385;DHT22;55336;43.062;25.626;2024-02-28T06:32:45;5.60;99.90
68385;DHT22;55336;43.062;25.626;2024-02-28T06:35:11;5.90;99.90
68385;DHT22;55336;43.062;25.626;2024-02-28T06:37:37;6.20;99.90
68385;DHT22;55336;43.062;25.626;2024-02-28T06:40:02;6.60;99.90
68385;DHT22;55336;43.062;25.626;2024-02-28T06:42:29;6.90;99.90
68385;DHT22;55336;43.062;25.626;2024-02-28T06:44:55;7.30;99.90
68385;DHT22;55336;43.062;25.626;2024-02-28T06:47:21;7.50;99.90
68385;DHT22;55336;43.062;25.626;2024-02-28T06:49:47;7.80;99.90
68385;DHT22;55336;43.062;25.626;2024-02-28T06:52:14;8.10;99.90
68385;DHT22;55336;43.062;25.626;2024-02-28T06:54:40;8.30;99.90
68385;DHT22;55336;43.062;25.626;2024-02-28T06:57:05;8.40;99.90
68385;DHT22;55336;43.062;25.626;2024-02-28T06:59:31;8.60;99.90
68385;DHT22;55336;43.062;25.626;2024-02-28T07:01:57;8.40;99.90
68385;DHT22;55336;43.062;25.626;2024-02-28T07:04:23;8.70;99.90
68385;DHT22;55336;43.062;25.626;2024-02-28T07:06:48;8.70;99.90
68385;DHT22;55336;43.062;25.626;2024-02-28T07:09:14;8.80;99.90
68385;DHT22;55336;43.062;25.626;2024-02-28T07:11:40;9.10;99.90
68385;DHT22;55336;43.062;25.626;2024-02-28T07:14:06;9.30;99.90
68385;DHT22;55336;43.062;25.626;2024-02-28T07:16:32;9.60;99.90
68385;DHT22;55336;43.062;25.626;2024-02-28T07:19:00;9.90;99.90
68385;DHT22;55336;43.062;25.626;2024-02-28T07:21:25;10.20;99.90
68385;DHT22;55336;43.062;25.626;2024-02-28T07:23:51;10.40;99.90
68385;DHT22;55336;43.062;25.626;2024-02-28T07:26:17;10.70;99.90
68385;DHT22;55336;43.062;25.626;2024-02-28T07:28:42;11.00;99.90
68385;DHT22;55336;43.062;25.626;2024-02-28T07:31:18;11.60;99.90
68385;DHT22;55336;43.062;25.626;2024-02-28T07:33:43;11.90;99.90
68385;DHT22;55336;43.062;25.626;2024-02-28T07:36:09;12.20;99.90
68385;DHT22;55336;43.062;25.626;2024-02-28T07:38:35;12.40;99.90
68385;DHT22;55336;43.062;25.626;2024-02-28T07:41:01;12.90;99.90
68385;DHT22;55336;43.062;25.626;2024-02-28T07:43:27;12.70;99.90
68385;DHT22;55336;43.062;25.626;2024-02-28T07:45:54;13.00;99.90
68385;DHT22;55336;43.062;25.626;2024-02-28T07:48:19;13.40;99.90
68385;DHT22;55336;43.062;25.626;2024-02-28T07:50:46;13.90;99.90
68385;DHT22;55336;43.062;25.626;2024-02-28T07:53:14;15.00;99.90
68385;DHT22;55336;43.062;25.626;2024-02-28T07:55:40;14.70;99.90
68385;DHT22;55336;43.062;25.626;2024-02-28T07:58:06;15.00;99.90
68385;DHT22;55336;43.062;25.626;2024-02-28T08:00:32;15.30;99.90
68385;DHT22;55336;43.062;25.626;2024-02-28T08:03:01;15.50;99.90
68385;DHT22;55336;43.062;25.626;2024-02-28T08:05:26;15.90;99.90
68385;DHT22;55336;43.062;25.626;2024-02-28T08:07:52;16.00;99.90
68385;DHT22;55336;43.062;25.626;2024-02-28T08:10:18;15.80;99.90
68385;DHT22;55336;43.062;25.626;2024-02-28T08:12:43;15.90;99.90
68385;DHT22;55336;43.062;25.626;2024-02-28T08:15:09;16.30;99.90
68385;DHT22;55336;43.062;25.626;2024-02-28T08:17:35;16.00;99.90
68385;DHT22;55336;43.062;25.626;2024-02-28T08:20:02;16.30;99.90
68385;DHT22;55336;43.062;25.626;2024-02-28T08:22:30;16.50;99.90
68385;DHT22;55336;43.062;25.626;2024-02-28T08:24:56;16.80;99.90
68385;DHT22;55336;43.062;25.626;2024-02-28T08:27:21;16.80;99.90
68385;DHT22;55336;43.062;25.626;2024-02-28T08:29:49;17.20;99.90
68385;DHT22;55336;43.062;25.626;2024-02-28T08:32:15;17.30;99.90
68385;DHT22;55336;43.062;25.626;2024-02-28T08:34:47;17.30;99.90
68385;DHT22;55336;43.062;25.626;2024-02-28T08:37:13;17.40;99.70
68385;DHT22;55336;43.062;25.626;2024-02-28T08:39:41;17.40;97.10
68385;DHT22;55336;43.062;25.626;2024-02-28T08:42:06;17.10;99.50
68385;DHT22;55336;43.062;25.626;2024-02-28T08:44:32;17.30;98.00
68385;DHT22;55336;43.062;25.626;2024-02-28T08:46:58;17.50;96.90
68385;DHT22;55336;43.062;25.626;2024-02-28T08:49:24;17.60;94.10
68385;DHT22;55336;43.062;25.626;2024-02-28T08:51:50;17.90;93.00
68385;DHT22;55336;43.062;25.626;2024-02-28T08:54:16;18.40;91.20
68385;DHT22;55336;43.062;25.626;2024-02-28T08:56:41;18.70;89.20
68385;DHT22;55336;43.062;25.626;2024-02-28T08:59:07;18.40;85.00
68385;DHT22;55336;43.062;25.626;2024-02-28T09:01:33;18.50;85.80
68385;DHT22;55336;43.062;25.626;2024-02-28T09:04:00;18.20;88.30
68385;DHT22;55336;43.062;25.626;2024-02-28T09:06:25;18.60;84.90
68385;DHT22;55336;43.062;25.626;2024-02-28T09:08:51;18.90;84.70
68385;DHT22;55336;43.062;25.626;2024-02-28T09:11:17;19.10;85.20
68385;DHT22;55336;43.062;25.626;2024-02-28T09:13:42;19.30;79.40
68385;DHT22;55336;43.062;25.626;2024-02-28T09:16:08;19.40;79.50
68385;DHT22;55336;43.062;25.626;2024-02-28T09:18:34;19.40;77.70
68385;DHT22;55336;43.062;25.626;2024-02-28T09:20:59;19.70;76.60
68385;DHT22;55336;43.062;25.626;2024-02-28T09:23:25;19.90;75.30
68385;DHT22;55336;43.062;25.626;2024-02-28T09:25:51;20.00;72.20
68385;DHT22;55336;43.062;25.626;2024-02-28T09:28:17;20.00;72.90
68385;DHT22;55336;43.062;25.626;2024-02-28T09:30:45;20.00;73.90
68385;DHT22;55336;43.062;25.626;2024-02-28T09:33:13;20.00;80.00
68385;DHT22;55336;43.062;25.626;2024-02-28T09:35:38;20.40;72.00
68385;DHT22;55336;43.062;25.626;2024-02-28T09:38:04;20.20;72.80
68385;DHT22;55336;43.062;25.626;2024-02-28T09:40:30;20.70;69.90
68385;DHT22;55336;43.062;25.626;2024-02-28T09:43:03;21.00;68.60
68385;DHT22;55336;43.062;25.626;2024-02-28T09:45:29;21.30;68.10
68385;DHT22;55336;43.062;25.626;2024-02-28T09:47:56;20.00;71.90
68385;DHT22;55336;43.062;25.626;2024-02-28T09:50:22;20.60;72.90
68385;DHT22;55336;43.062;25.626;2024-02-28T09:52:49;20.50;70.40
68385;DHT22;55336;43.062;25.626;2024-02-28T09:55:15;19.10;79.00
68385;DHT22;55336;43.062;25.626;2024-02-28T09:57:40;18.50;78.20
68385;DHT22;55336;43.062;25.626;2024-02-28T10:00:06;19.70;76.80
68385;DHT22;55336;43.062;25.626;2024-02-28T10:02:33;20.40;73.80
68385;DHT22;55336;43.062;25.626;2024-02-28T10:04:59;20.80;70.00
68385;DHT22;55336;43.062;25.626;2024-02-28T10:07:26;21.00;69.10
68385;DHT22;55336;43.062;25.626;2024-02-28T10:09:52;20.70;71.10
68385;DHT22;55336;43.062;25.626;2024-02-28T10:12:19;19.80;70.70
68385;DHT22;55336;43.062;25.626;2024-02-28T10:14:45;19.90;74.10
68385;DHT22;55336;43.062;25.626;2024-02-28T10:17:11;19.60;77.40
68385;DHT22;55336;43.062;25.626;2024-02-28T10:19:37;20.30;72.20
68385;DHT22;55336;43.062;25.626;2024-02-28T10:22:04;20.10;75.00
68385;DHT22;55336;43.062;25.626;2024-02-28T10:24:30;19.20;76.40
68385;DHT22;55336;43.062;25.626;2024-02-28T10:27:00;19.00;78.90
68385;DHT22;55336;43.062;25.626;2024-02-28T10:29:26;18.90;77.90
68385;DHT22;55336;43.062;25.626;2024-02-28T10:31:56;19.80;74.50
68385;DHT22;55336;43.062;25.626;2024-02-28T10:34:22;20.80;71.90
68385;DHT22;55336;43.062;25.626;2024-02-28T10:36:48;20.50;73.60
68385;DHT22;55336;43.062;25.626;2024-02-28T10:39:14;21.10;69.70
68385;DHT22;55336;43.062;25.626;2024-02-28T10:41:41;21.90;66.10
68385;DHT22;55336;43.062;25.626;2024-02-28T10:44:08;22.20;64.70
68385;DHT22;55336;43.062;25.626;2024-02-28T10:46:34;22.40;62.50
68385;DHT22;55336;43.062;25.626;2024-02-28T10:49:00;22.50;61.90
68385;DHT22;55336;43.062;25.626;2024-02-28T10:51:26;22.90;61.90
68385;DHT22;55336;43.062;25.626;2024-02-28T10:54:10;22.50;59.20
68385;DHT22;55336;43.062;25.626;2024-02-28T10:56:37;23.00;59.30
68385;DHT22;55336;43.062;25.626;2024-02-28T10:59:03;22.80;58.50
68385;DHT22;55336;43.062;25.626;2024-02-28T11:01:31;23.00;59.50
68385;DHT22;55336;43.062;25.626;2024-02-28T11:03:57;21.00;64.20
68385;DHT22;55336;43.062;25.626;2024-02-28T11:06:23;21.40;64.20
68385;DHT22;55336;43.062;25.626;2024-02-28T11:08:49;20.60;65.60
68385;DHT22;55336;43.062;25.626;2024-02-28T11:11:20;19.40;72.30
68385;DHT22;55336;43.062;25.626;2024-02-28T11:13:53;20.30;70.70
68385;DHT22;55336;43.062;25.626;2024-02-28T11:16:25;20.50;72.20
68385;DHT22;55336;43.062;25.626;2024-02-28T11:18:55;21.40;67.20
68385;DHT22;55336;43.062;25.626;2024-02-28T11:21:28;21.40;67.60
68385;DHT22;55336;43.062;25.626;2024-02-28T11:23:57;22.00;63.90
68385;DHT22;55336;43.062;25.626;2024-02-28T11:26:23;21.20;65.70
68385;DHT22;55336;43.062;25.626;2024-02-28T11:28:49;22.10;63.00
68385;DHT22;55336;43.062;25.626;2024-02-28T11:31:15;22.90;59.80
68385;DHT22;55336;43.062;25.626;2024-02-28T11:33:41;23.20;58.70
68385;DHT22;55336;43.062;25.626;2024-02-28T11:36:07;23.20;58.20
68385;DHT22;55336;43.062;25.626;2024-02-28T11:38:36;23.70;57.90
68385;DHT22;55336;43.062;25.626;2024-02-28T11:41:05;23.60;57.40
68385;DHT22;55336;43.062;25.626;2024-02-28T11:43:31;22.20;57.60
68385;DHT22;55336;43.062;25.626;2024-02-28T11:46:09;22.40;62.00
68385;DHT22;55336;43.062;25.626;2024-02-28T11:48:37;23.00;58.10
68385;DHT22;55336;43.062;25.626;2024-02-28T11:51:03;22.70;60.50
68385;DHT22;55336;43.062;25.626;2024-02-28T11:53:29;22.90;57.70
68385;DHT22;55336;43.062;25.626;2024-02-28T11:55:55;22.20;61.90
68385;DHT22;55336;43.062;25.626;2024-02-28T11:58:21;22.40;61.60
68385;DHT22;55336;43.062;25.626;2024-02-28T12:00:47;22.40;59.10
68385;DHT22;55336;43.062;25.626;2024-02-28T12:03:13;21.90;63.10
68385;DHT22;55336;43.062;25.626;2024-02-28T12:05:40;21.90;62.10
68385;DHT22;55336;43.062;25.626;2024-02-28T12:08:06;21.50;65.10
68385;DHT22;55336;43.062;25.626;2024-02-28T12:10:33;21.50;63.20
68385;DHT22;55336;43.062;25.626;2024-02-28T12:12:59;20.90;64.70
68385;DHT22;55336;43.062;25.626;2024-02-28T12:15:25;20.60;65.40
68385;DHT22;55336;43.062;25.626;2024-02-28T12:17:52;21.00;64.40
68385;DHT22;55336;43.062;25.626;2024-02-28T12:20:17;20.90;63.20
68385;DHT22;55336;43.062;25.626;2024-02-28T12:22:43;20.90;64.10
68385;DHT22;55336;43.062;25.626;2024-02-28T12:25:11;21.20;63.30
68385;DHT22;55336;43.062;25.626;2024-02-28T12:27:36;21.00;63.60
68385;DHT22;55336;43.062;25.626;2024-02-28T12:30:03;20.90;64.50
68385;DHT22;55336;43.062;25.626;2024-02-28T12:32:29;21.30;64.00
68385;DHT22;55336;43.062;25.626;2024-02-28T12:34:55;21.50;62.70
68385;DHT22;55336;43.062;25.626;2024-02-28T12:37:21;21.30;63.60
68385;DHT22;55336;43.062;25.626;2024-02-28T12:39:47;20.90;65.10
68385;DHT22;55336;43.062;25.626;2024-02-28T12:42:13;20.40;67.20
68385;DHT22;55336;43.062;25.626;2024-02-28T12:44:38;20.70;65.70
68385;DHT22;55336;43.062;25.626;2024-02-28T12:47:14;20.90;65.20
68385;DHT22;55336;43.062;25.626;2024-02-28T12:49:40;20.60;66.80
68385;DHT22;55336;43.062;25.626;2024-02-28T12:52:06;20.60;67.10
68385;DHT22;55336;43.062;25.626;2024-02-28T12:54:32;20.40;68.90
68385;DHT22;55336;43.062;25.626;2024-02-28T12:56:58;20.60;67.90
68385;DHT22;55336;43.062;25.626;2024-02-28T12:59:28;20.70;67.00
68385;DHT22;55336;43.062;25.626;2024-02-28T13:01:54;20.40;66.70
68385;DHT22;55336;43.062;25.626;2024-02-28T13:04:20;19.80;69.50
68385;DHT22;55336;43.062;25.626;2024-02-28T13:06:47;19.80;70.10
68385;DHT22;55336;43.062;25.626;2024-02-28T13:09:12;19.70;70.40
68385;DHT22;55336;43.062;25.626;2024-02-28T13:11:38;19.60;70.80
68385;DHT22;55336;43.062;25.626;2024-02-28T13:14:04;19.30;72.20
68385;DHT22;55336;43.062;25.626;2024-02-28T13:16:30;19.30;73.00
68385;DHT22;55336;43.062;25.626;2024-02-28T13:18:56;19.60;71.70
68385;DHT22;55336;43.062;25.626;2024-02-28T13:21:24;19.50;73.20
68385;DHT22;55336;43.062;25.626;2024-02-28T13:23:50;19.70;73.70
68385;DHT22;55336;43.062;25.626;2024-02-28T13:26:16;19.80;72.30
68385;DHT22;55336;43.062;25.626;2024-02-28T13:28:46;20.10;72.10
68385;DHT22;55336;43.062;25.626;2024-02-28T13:31:14;20.20;71.90
68385;DHT22;55336;43.062;25.626;2024-02-28T13:34:10;20.20;71.30
68385;DHT22;55336;43.062;25.626;2024-02-28T13:36:36;20.40;70.70
68385;DHT22;55336;43.062;25.626;2024-02-28T13:39:08;20.60;70.00
68385;DHT22;55336;43.062;25.626;2024-02-28T13:41:34;21.00;69.40
68385;DHT22;55336;43.062;25.626;2024-02-28T13:44:10;20.60;70.30
68385;DHT22;55336;43.062;25.626;2024-02-28T13:46:36;20.80;69.50
68385;DHT22;55336;43.062;25.626;2024-02-28T13:49:05;21.20;68.90
68385;DHT22;55336;43.062;25.626;2024-02-28T13:51:30;20.90;67.70
68385;DHT22;55336;43.062;25.626;2024-02-28T13:53:56;21.60;67.40
68385;DHT22;55336;43.062;25.626;2024-02-28T13:56:22;21.40;68.00
68385;DHT22;55336;43.062;25.626;2024-02-28T13:58:48;20.70;70.00
68385;DHT22;55336;43.062;25.626;2024-02-28T14:01:13;21.10;67.70
68385;DHT22;55336;43.062;25.626;2024-02-28T14:03:39;21.40;67.20
68385;DHT22;55336;43.062;25.626;2024-02-28T14:06:05;20.90;67.70
68385;DHT22;55336;43.062;25.626;2024-02-28T14:08:31;21.30;67.50
68385;DHT22;55336;43.062;25.626;2024-02-28T14:10:57;21.80;66.20
68385;DHT22;55336;43.062;25.626;2024-02-28T14:13:23;21.60;65.50
68385;DHT22;55336;43.062;25.626;2024-02-28T14:15:50;21.40;67.10
68385;DHT22;55336;43.062;25.626;2024-02-28T14:18:16;21.10;67.50
68385;DHT22;55336;43.062;25.626;2024-02-28T14:20:45;21.40;66.70
68385;DHT22;55336;43.062;25.626;2024-02-28T14:23:11;21.50;66.60
68385;DHT22;55336;43.062;25.626;2024-02-28T14:25:37;20.90;69.20
68385;DHT22;55336;43.062;25.626;2024-02-28T14:28:03;21.30;66.60
68385;DHT22;55336;43.062;25.626;2024-02-28T14:30:29;21.60;66.90
68385;DHT22;55336;43.062;25.626;2024-02-28T14:32:55;21.70;66.00
68385;DHT22;55336;43.062;25.626;2024-02-28T14:35:20;21.80;65.70
68385;DHT22;55336;43.062;25.626;2024-02-28T14:40:38;21.10;66.30
68385;DHT22;55336;43.062;25.626;2024-02-28T14:43:27;21.30;67.30
68385;DHT22;55336;43.062;25.626;2024-02-28T14:46:01;21.60;66.40
68385;DHT22;55336;43.062;25.626;2024-02-28T14:48:30;21.80;65.70
68385;DHT22;55336;43.062;25.626;2024-02-28T14:51:22;22.00;65.30
68385;DHT22;55336;43.062;25.626;2024-02-28T14:53:50;21.90;65.20
68385;DHT22;55336;43.062;25.626;2024-02-28T14:56:16;20.40;68.60
68385;DHT22;55336;43.062;25.626;2024-02-28T14:58:42;20.20;70.20
68385;DHT22;55336;43.062;25.626;2024-02-28T15:01:11;20.00;70.60
68385;DHT22;55336;43.062;25.626;2024-02-28T15:03:37;19.70;71.20
68385;DHT22;55336;43.062;25.626;2024-02-28T15:06:02;19.80;72.20
68385;DHT22;55336;43.062;25.626;2024-02-28T15:08:29;19.70;72.00
68385;DHT22;55336;43.062;25.626;2024-02-28T15:10:54;19.50;72.90
68385;DHT22;55336;43.062;25.626;2024-02-28T15:13:20;19.40;72.90
68385;DHT22;55336;43.062;25.626;2024-02-28T15:15:46;19.30;73.00
68385;DHT22;55336;43.062;25.626;2024-02-28T15:18:12;18.90;74.80
68385;DHT22;55336;43.062;25.626;2024-02-28T15:20:37;18.40;76.90